createdAt,value
2018-12-19T00:01:54.901Z,1.13
2018-12-19T00:04:22.473Z,1.05
2018-12-19T00:06:50.030Z,1.07
2018-12-19T00:09:18.630Z,0.98
2018-12-19T00:11:46.154Z,0.97
2018-12-19T00:14:13.704Z,0.96
2018-12-19T00:16:41.417Z,0.99
2018-12-19T00:19:08.957Z,0.90
2018-12-19T00:21:36.529Z,0.91
2018-12-19T00:24:04.153Z,0.95
2018-12-19T00:26:31.733Z,1.02
2018-12-19T00:28:59.277Z,0.95
2018-12-19T00:31:26.915Z,0.86
2018-12-19T00:33:54.450Z,0.91
2018-12-19T00:36:22.014Z,0.92
2018-12-19T00:38:49.785Z,1.10
2018-12-19T00:41:25.022Z,0.88
2018-12-19T00:43:52.807Z,0.98
2018-12-19T00:46:20.372Z,0.92
2018-12-19T00:48:47.938Z,0.90
2018-12-19T00:51:15.708Z,1.01
2018-12-19T00:53:43.297Z,0.98
2018-12-19T00:56:10.882Z,0.92
2018-12-19T00:58:38.461Z,0.95
2018-12-19T01:01:06.015Z,1.03
2018-12-19T01:03:33.575Z,1.07
2018-12-19T01:06:01.192Z,1.23
2018-12-19T01:08:28.735Z,1.05
2018-12-19T01:11:17.981Z,1.10
2018-12-19T01:13:45.536Z,0.90
2018-12-19T01:16:13.079Z,0.89
2018-12-19T01:18:40.757Z,0.97
2018-12-19T01:21:08.295Z,0.98
2018-12-19T01:23:35.840Z,0.89
2018-12-19T01:26:03.696Z,0.83
2018-12-19T01:28:31.224Z,0.82
2018-12-19T01:30:58.765Z,0.78
2018-12-19T01:33:26.734Z,0.88
2018-12-19T01:35:54.300Z,1.04
2018-12-19T01:38:21.850Z,0.94
2018-12-19T01:40:49.536Z,1.15
2018-12-19T01:43:17.093Z,1.22
2018-12-19T01:45:44.674Z,0.97
2018-12-19T01:48:12.339Z,0.79
2018-12-19T01:50:39.953Z,0.91
2018-12-19T01:53:07.513Z,0.94
2018-12-19T01:55:35.220Z,0.85
2018-12-19T01:58:02.757Z,0.77
2018-12-19T02:00:31.188Z,0.65
2018-12-19T02:02:59.148Z,0.80
2018-12-19T02:05:26.685Z,0.64
2018-12-19T02:07:54.253Z,0.63
2018-12-19T02:10:21.965Z,0.64
2018-12-19T02:12:49.505Z,0.63
2018-12-19T02:15:17.044Z,0.53
2018-12-19T02:17:44.659Z,0.54
2018-12-19T02:20:12.193Z,0.51
2018-12-19T02:22:39.754Z,0.45
2018-12-19T02:25:07.636Z,0.51
2018-12-19T02:27:35.181Z,0.56
2018-12-19T02:30:02.766Z,0.73
2018-12-19T02:32:30.360Z,0.65
2018-12-19T02:34:57.916Z,0.62
2018-12-19T02:37:25.445Z,0.69
2018-12-19T02:39:53.190Z,0.60
2018-12-19T02:42:20.734Z,0.51
2018-12-19T02:44:48.274Z,0.51
2018-12-19T02:47:16.195Z,0.51
2018-12-19T02:49:43.739Z,0.52
2018-12-19T02:52:11.277Z,0.54
2018-12-19T02:54:39.272Z,0.48
2018-12-19T02:57:06.822Z,0.56
2018-12-19T02:59:34.354Z,0.56
2018-12-19T03:02:02.061Z,0.54
2018-12-19T03:04:29.613Z,0.46
2018-12-19T03:06:57.173Z,0.53
2018-12-19T03:09:24.810Z,0.55
2018-12-19T03:11:52.370Z,0.46
2018-12-19T03:14:19.917Z,0.43
2018-12-19T03:16:47.697Z,0.39
2018-12-19T03:19:15.268Z,0.59
2018-12-19T03:21:42.827Z,0.53
2018-12-19T03:24:10.410Z,0.53
2018-12-19T03:26:37.945Z,0.47
2018-12-19T03:29:05.497Z,0.44
2018-12-19T03:31:33.232Z,0.41
2018-12-19T03:34:00.782Z,0.40
2018-12-19T03:36:28.321Z,0.30
2018-12-19T03:38:56.033Z,0.29
2018-12-19T03:41:23.584Z,0.34
2018-12-19T03:43:51.154Z,0.34
2018-12-19T03:46:18.881Z,0.31
2018-12-19T03:48:52.073Z,0.30
2018-12-19T03:51:27.228Z,0.23
2018-12-19T03:53:54.793Z,0.21
2018-12-19T03:56:22.309Z,0.23
2018-12-19T03:58:50.023Z,0.26
2018-12-19T04:01:17.572Z,0.28
2018-12-19T04:03:45.142Z,0.28
2018-12-19T04:06:12.760Z,0.26
2018-12-19T04:08:40.338Z,0.27
2018-12-19T04:11:08.880Z,0.24
2018-12-19T04:13:36.671Z,0.26
2018-12-19T04:16:04.277Z,0.28
2018-12-19T04:18:31.798Z,0.30
2018-12-19T04:20:59.406Z,0.34
2018-12-19T04:23:26.965Z,0.35
2018-12-19T04:25:54.542Z,0.27
2018-12-19T04:28:22.210Z,0.28
2018-12-19T04:30:49.782Z,0.25
2018-12-19T04:33:17.329Z,0.38
2018-12-19T04:35:45.082Z,0.37
2018-12-19T04:38:12.681Z,0.27
2018-12-19T04:40:40.254Z,0.29
2018-12-19T04:43:08.621Z,0.46
2018-12-19T04:45:36.162Z,0.57
2018-12-19T04:48:03.702Z,0.66
2018-12-19T04:50:31.434Z,0.69
2018-12-19T04:52:58.981Z,0.75
2018-12-19T04:55:26.543Z,0.79
2018-12-19T04:57:54.413Z,1.04
2018-12-19T05:00:22.057Z,1.02
2018-12-19T05:02:49.595Z,1.01
2018-12-19T05:05:17.345Z,1.20
2018-12-19T05:07:44.963Z,0.94
2018-12-19T05:10:12.685Z,0.96
2018-12-19T05:12:40.220Z,0.89
2018-12-19T05:15:07.794Z,0.95
2018-12-19T05:17:35.386Z,0.99
2018-12-19T05:20:04.328Z,1.01
2018-12-19T05:22:31.857Z,1.23
2018-12-19T05:24:59.414Z,1.06
2018-12-19T05:27:27.040Z,0.85
2018-12-19T05:29:54.578Z,0.86
2018-12-19T05:32:22.143Z,0.89
2018-12-19T05:34:49.714Z,0.85
2018-12-19T05:37:17.278Z,0.85
2018-12-19T05:39:44.869Z,0.86
2018-12-19T05:42:12.500Z,0.93
2018-12-19T05:44:40.041Z,0.90
2018-12-19T05:47:08.539Z,0.91
2018-12-19T05:49:35.598Z,1.16
2018-12-19T05:52:03.166Z,1.11
2018-12-19T05:54:30.749Z,1.00
2018-12-19T05:56:58.363Z,0.93
2018-12-19T05:59:25.925Z,0.96
2018-12-19T06:01:53.471Z,1.04
2018-12-19T06:04:21.091Z,1.21
2018-12-19T06:06:48.624Z,1.19
2018-12-19T06:09:17.017Z,1.05
2018-12-19T06:11:44.745Z,1.18
2018-12-19T06:14:12.336Z,1.20
2018-12-19T06:16:39.874Z,1.05
2018-12-19T06:19:07.483Z,0.79
2018-12-19T06:21:35.102Z,0.73
2018-12-19T06:24:02.648Z,0.74
2018-12-19T06:26:30.398Z,0.66
2018-12-19T06:28:57.953Z,0.82
2018-12-19T06:31:25.476Z,0.79
2018-12-19T06:33:53.462Z,1.00
2018-12-19T06:36:21.049Z,1.02
2018-12-19T06:38:48.590Z,0.99
2018-12-19T06:41:16.357Z,1.00
2018-12-19T06:43:43.914Z,1.12
2018-12-19T06:46:11.520Z,1.28
2018-12-19T06:48:39.137Z,1.23
2018-12-19T06:51:06.750Z,1.32
2018-12-19T06:53:34.322Z,1.27
2018-12-19T06:56:02.042Z,1.50
2018-12-19T06:58:29.619Z,1.54
2018-12-19T07:00:57.209Z,1.61
2018-12-19T07:03:25.191Z,1.62
2018-12-19T07:05:52.765Z,1.99
2018-12-19T07:08:20.317Z,2.05
2018-12-19T07:10:48.246Z,1.97
2018-12-19T07:13:15.770Z,2.16
2018-12-19T07:15:43.313Z,2.19
2018-12-19T07:18:10.885Z,2.27
2018-12-19T07:20:38.477Z,2.30
2018-12-19T07:23:06.029Z,2.17
2018-12-19T07:25:33.731Z,2.20
2018-12-19T07:28:01.333Z,2.26
2018-12-19T07:30:28.894Z,2.11
2018-12-19T07:32:56.798Z,2.20
2018-12-19T07:35:24.349Z,2.22
2018-12-19T07:37:51.897Z,1.99
2018-12-19T07:40:19.531Z,2.20
2018-12-19T07:42:47.078Z,2.37
2018-12-19T07:45:14.606Z,2.29
2018-12-19T07:47:42.530Z,2.12
2018-12-19T07:50:10.110Z,2.27
2018-12-19T07:52:37.652Z,2.16
2018-12-19T07:55:05.393Z,2.17
2018-12-19T07:57:32.968Z,1.98
2018-12-19T08:00:00.537Z,2.07
2018-12-19T08:02:28.197Z,2.22
2018-12-19T08:04:55.792Z,2.12
2018-12-19T08:07:23.376Z,2.32
2018-12-19T08:09:51.169Z,2.16
2018-12-19T08:12:18.763Z,2.10
2018-12-19T08:14:46.332Z,2.29
2018-12-19T08:17:14.368Z,2.49
2018-12-19T08:19:59.441Z,2.57
2018-12-19T08:22:27.293Z,2.40
2018-12-19T08:24:54.824Z,2.34
2018-12-19T08:27:22.397Z,2.50
2018-12-19T08:29:50.023Z,2.57
2018-12-19T08:32:17.584Z,2.68
2018-12-19T08:34:45.150Z,2.71
2018-12-19T08:37:12.877Z,2.65
2018-12-19T08:39:40.477Z,2.82
2018-12-19T08:42:08.090Z,2.86
2018-12-19T08:44:35.830Z,2.93
2018-12-19T08:47:03.440Z,2.70
2018-12-19T08:49:31.026Z,2.72
2018-12-19T08:51:58.740Z,2.80
2018-12-19T08:54:26.291Z,2.94
2018-12-19T08:56:53.854Z,2.75
2018-12-19T08:59:21.578Z,2.79
2018-12-19T09:01:49.213Z,2.80
2018-12-19T09:04:16.822Z,2.89
2018-12-19T09:06:44.663Z,2.87
2018-12-19T09:09:12.239Z,2.99
2018-12-19T09:11:39.841Z,3.08
2018-12-19T09:14:07.450Z,3.16
2018-12-19T09:16:35.037Z,3.29
2018-12-19T09:19:02.617Z,3.46
2018-12-19T09:21:30.253Z,3.33
2018-12-19T09:23:58.163Z,3.59
2018-12-19T09:26:25.848Z,3.54
2018-12-19T09:28:53.573Z,3.54
2018-12-19T09:31:23.170Z,3.48
2018-12-19T09:33:51.602Z,3.61
2018-12-19T09:36:19.576Z,3.52
2018-12-19T09:38:47.143Z,3.44
2018-12-19T09:41:14.731Z,3.58
2018-12-19T09:43:42.351Z,3.66
2018-12-19T09:46:09.953Z,3.63
2018-12-19T09:48:37.537Z,3.47
2018-12-19T09:51:13.342Z,3.61
2018-12-19T09:53:41.477Z,3.83
2018-12-19T09:56:09.093Z,3.63
2018-12-19T09:58:37.070Z,3.86
2018-12-19T10:01:05.508Z,3.73
2018-12-19T10:03:32.400Z,3.83
2018-12-19T10:06:02.272Z,3.65
2018-12-19T10:08:30.116Z,3.58
2018-12-19T10:11:02.057Z,3.61
2018-12-19T10:13:29.936Z,3.51
2018-12-19T10:15:57.949Z,3.57
2018-12-19T10:18:26.261Z,3.55
2018-12-19T10:20:57.660Z,3.84
2018-12-19T10:23:25.537Z,3.77
2018-12-19T10:26:12.926Z,3.90
2018-12-19T10:28:40.638Z,4.08
2018-12-19T10:31:08.322Z,3.94
2018-12-19T10:33:35.999Z,4.05
2018-12-19T10:36:04.589Z,4.27
2018-12-19T10:38:32.174Z,4.23
2018-12-19T10:40:59.802Z,4.27
2018-12-19T10:43:27.548Z,4.21
2018-12-19T10:45:55.241Z,4.06
2018-12-19T10:48:23.166Z,3.98
2018-12-19T10:50:52.359Z,4.02
2018-12-19T10:53:18.589Z,4.21
2018-12-19T10:55:46.268Z,4.11
2018-12-19T10:58:14.003Z,4.04
2018-12-19T11:00:46.993Z,4.06
2018-12-19T11:03:14.732Z,3.85
2018-12-19T11:05:42.344Z,3.85
2018-12-19T11:08:10.043Z,3.80
2018-12-19T11:10:39.627Z,3.90
2018-12-19T11:13:09.203Z,3.87
2018-12-19T11:15:36.808Z,4.11
2018-12-19T11:18:04.865Z,4.12
2018-12-19T11:20:33.208Z,4.02
2018-12-19T11:23:02.010Z,3.96
2018-12-19T11:25:29.767Z,4.18
2018-12-19T11:27:58.492Z,4.14
2018-12-19T11:30:26.086Z,4.13
2018-12-19T11:32:53.772Z,4.30
2018-12-19T11:35:21.749Z,4.39
2018-12-19T11:37:50.190Z,4.48
2018-12-19T11:40:18.423Z,4.40
2018-12-19T11:42:46.270Z,4.47
2018-12-19T11:45:13.945Z,4.72
2018-12-19T11:47:41.588Z,4.63
2018-12-19T11:50:09.370Z,4.60
2018-12-19T11:52:36.950Z,4.58
2018-12-19T11:55:04.948Z,4.75
2018-12-19T11:57:32.539Z,4.73
2018-12-19T12:00:00.130Z,4.61
2018-12-19T12:02:27.786Z,4.64
2018-12-19T12:04:56.104Z,4.84
2018-12-19T12:07:23.917Z,4.85
2018-12-19T12:09:52.359Z,4.97
2018-12-19T12:12:19.929Z,5.04
2018-12-19T12:14:47.789Z,4.89
2018-12-19T12:17:15.685Z,5.06
2018-12-19T12:19:43.305Z,5.01
2018-12-19T12:22:11.175Z,5.26
2018-12-19T12:24:38.852Z,5.40
2018-12-19T12:27:06.468Z,5.59
2018-12-19T12:29:34.135Z,5.46
2018-12-19T12:32:02.826Z,5.32
2018-12-19T12:34:31.209Z,5.14
2018-12-19T12:36:58.897Z,5.17
2018-12-19T12:39:26.937Z,4.95
2018-12-19T12:41:54.531Z,4.77
2018-12-19T12:44:22.104Z,4.85
2018-12-19T12:46:49.826Z,4.71
2018-12-19T12:49:17.377Z,4.84
2018-12-19T12:51:45.008Z,4.74
2018-12-19T12:54:12.847Z,4.59
2018-12-19T12:56:40.472Z,4.51
2018-12-19T12:59:08.068Z,4.46
2018-12-19T13:01:37.667Z,4.62
2018-12-19T13:04:05.308Z,4.62
2018-12-19T13:06:32.921Z,4.62
2018-12-19T13:09:00.773Z,4.69
2018-12-19T13:11:29.168Z,4.77
2018-12-19T13:13:56.763Z,4.72
2018-12-19T13:16:24.465Z,4.96
2018-12-19T13:18:52.064Z,5.18
2018-12-19T13:21:19.695Z,5.32
2018-12-19T13:23:47.544Z,5.39
2018-12-19T13:26:15.414Z,5.37
2018-12-19T13:28:42.986Z,5.16
2018-12-19T13:31:10.705Z,5.09
2018-12-19T13:33:38.344Z,5.33
2018-12-19T13:36:06.666Z,5.23
2018-12-19T13:38:34.392Z,5.10
2018-12-19T13:41:02.012Z,4.70
2018-12-19T13:43:29.588Z,4.52
2018-12-19T13:45:57.865Z,4.58
2018-12-19T13:48:26.412Z,4.49
2018-12-19T13:50:54.047Z,4.50
2018-12-19T13:53:21.730Z,4.41
2018-12-19T13:55:49.320Z,4.44
2018-12-19T13:58:16.921Z,4.38
2018-12-19T14:00:44.802Z,4.34
2018-12-19T14:03:12.950Z,4.27
2018-12-19T14:05:40.537Z,4.44
2018-12-19T14:08:08.197Z,4.23
2018-12-19T14:10:36.463Z,4.11
2018-12-19T14:13:04.389Z,4.02
2018-12-19T14:15:32.125Z,4.00
2018-12-19T14:17:59.789Z,3.99
2018-12-19T14:20:27.343Z,3.94
2018-12-19T14:22:55.059Z,3.86
2018-12-19T14:25:22.707Z,3.64
2018-12-19T14:27:50.572Z,3.47
2018-12-19T14:30:18.242Z,3.37
2018-12-19T14:32:45.802Z,3.38
2018-12-19T14:35:13.423Z,3.41
2018-12-19T14:37:41.152Z,3.19
2018-12-19T14:40:08.758Z,2.97
2018-12-19T14:42:36.362Z,2.75
2018-12-19T14:45:05.062Z,2.58
2018-12-19T14:47:32.679Z,2.47
2018-12-19T14:50:00.247Z,2.22
2018-12-19T14:52:27.883Z,2.07
2018-12-19T14:54:56.350Z,2.03
2018-12-19T14:57:23.935Z,1.93
2018-12-19T14:59:52.098Z,1.83
2018-12-19T15:02:20.680Z,1.71
2018-12-19T15:04:48.949Z,1.67
2018-12-19T15:07:15.989Z,1.54
2018-12-19T15:09:43.566Z,1.49
2018-12-19T15:12:11.162Z,1.45
2018-12-19T15:14:39.602Z,1.30
2018-12-19T15:17:13.690Z,1.16
2018-12-19T15:19:34.929Z,1.12
2018-12-19T15:22:02.970Z,1.13
2018-12-19T15:24:30.530Z,1.14
2018-12-19T15:26:58.128Z,1.11
2018-12-19T15:29:26.537Z,1.04
2018-12-19T15:31:54.105Z,0.96
2018-12-19T15:34:21.781Z,0.86
2018-12-19T15:36:49.532Z,0.85
2018-12-19T15:39:17.128Z,0.96
2018-12-19T15:41:44.969Z,0.95
2018-12-19T15:44:13.361Z,0.95
2018-12-19T15:46:40.976Z,0.91
2018-12-19T15:49:08.540Z,0.88
2018-12-19T15:51:36.446Z,0.91
2018-12-19T15:54:04.034Z,0.84
2018-12-19T15:56:31.573Z,0.80
2018-12-19T15:59:01.004Z,0.86
2018-12-19T16:01:28.812Z,0.83
2018-12-19T16:03:56.366Z,0.77
2018-12-19T16:06:25.068Z,0.74
2018-12-19T16:08:52.649Z,0.68
2018-12-19T16:11:20.189Z,0.68
2018-12-19T16:13:47.904Z,0.63
2018-12-19T16:16:15.514Z,0.60
2018-12-19T16:18:43.272Z,0.71
2018-12-19T16:21:11.009Z,0.73
2018-12-19T16:23:38.579Z,1.02
2018-12-19T16:26:06.118Z,0.89
2018-12-19T16:28:40.887Z,0.80
2018-12-19T16:31:09.097Z,0.59
2018-12-19T16:33:36.686Z,0.35
2018-12-19T16:36:04.311Z,0.27
2018-12-19T16:38:31.859Z,0.18
2018-12-19T16:40:59.793Z,0.19
2018-12-19T16:43:27.653Z,0.16
2018-12-19T16:45:55.323Z,0.11
2018-12-19T16:48:23.361Z,0.11
2018-12-19T16:50:51.013Z,0.05
2018-12-19T16:53:18.580Z,-0.08
2018-12-19T16:55:46.135Z,-0.06
2018-12-19T16:58:14.390Z,0.09
2018-12-19T17:00:41.945Z,0.00
2018-12-19T17:03:09.569Z,0.46
2018-12-19T17:05:37.194Z,0.41
2018-12-19T17:08:04.757Z,0.16
2018-12-19T17:10:32.313Z,0.15
2018-12-19T17:13:00.205Z,0.10
2018-12-19T17:15:27.777Z,-0.03
2018-12-19T17:17:55.347Z,0.00
2018-12-19T17:20:23.197Z,-0.09
2018-12-19T17:22:50.773Z,-0.08
2018-12-19T17:25:18.404Z,-0.20
2018-12-19T17:27:46.116Z,-0.16
2018-12-19T17:30:13.810Z,-0.20
2018-12-19T17:32:41.418Z,-0.23
2018-12-19T17:35:09.219Z,-0.13
2018-12-19T17:37:36.812Z,-0.21
2018-12-19T17:40:04.488Z,-0.10
2018-12-19T17:42:32.084Z,-0.18
2018-12-19T17:44:59.667Z,-0.14
2018-12-19T17:47:27.241Z,-0.02
2018-12-19T17:49:55.162Z,-0.08
2018-12-19T17:52:22.709Z,-0.07
2018-12-19T17:54:50.263Z,-0.15
2018-12-19T17:57:18.189Z,-0.22
2018-12-19T17:59:45.769Z,-0.03
2018-12-19T18:02:13.386Z,-0.17
2018-12-19T18:04:41.090Z,-0.17
2018-12-19T18:07:08.674Z,-0.06
2018-12-19T18:09:36.232Z,-0.05
2018-12-19T18:12:03.884Z,-0.08
2018-12-19T18:14:31.434Z,0.10
2018-12-19T18:16:58.967Z,0.11
2018-12-19T18:19:26.522Z,0.06
2018-12-19T18:21:54.137Z,0.09
2018-12-19T18:24:22.065Z,0.03
2018-12-19T18:26:49.641Z,-0.08
2018-12-19T18:29:17.267Z,-0.09
2018-12-19T18:31:44.821Z,-0.15
2018-12-19T18:34:12.505Z,-0.06
2018-12-19T18:36:40.074Z,-0.12
2018-12-19T18:39:07.689Z,-0.11
2018-12-19T18:41:35.379Z,-0.07
2018-12-19T18:44:03.009Z,-0.07
2018-12-19T18:46:30.602Z,-0.12
2018-12-19T18:48:58.294Z,-0.15
2018-12-19T18:51:25.881Z,-0.19
2018-12-19T18:53:53.453Z,-0.18
2018-12-19T18:56:21.190Z,-0.13
2018-12-19T18:58:48.761Z,-0.25
2018-12-19T19:01:16.350Z,-0.32
2018-12-19T19:03:44.091Z,-0.27
2018-12-19T19:06:11.682Z,-0.22
2018-12-19T19:08:39.273Z,-0.09
2018-12-19T19:11:11.966Z,-0.14
2018-12-19T19:13:39.585Z,-0.14
2018-12-19T19:16:07.135Z,-0.17
2018-12-19T19:18:34.893Z,-0.26
2018-12-19T19:21:02.467Z,-0.33
2018-12-19T19:23:30.076Z,-0.22
2018-12-19T19:25:57.730Z,-0.29
2018-12-19T19:28:25.321Z,-0.40
2018-12-19T19:31:11.124Z,-0.52
2018-12-19T19:33:38.710Z,-0.56
2018-12-19T19:36:06.342Z,-0.58
2018-12-19T19:38:34.042Z,-0.36
2018-12-19T19:41:01.587Z,-0.48
2018-12-19T19:43:29.147Z,-0.48
2018-12-19T19:45:56.858Z,-0.43
2018-12-19T19:48:24.429Z,-0.43
2018-12-19T19:50:52.006Z,-0.51
2018-12-19T19:53:19.609Z,-0.56
2018-12-19T19:55:47.186Z,-0.57
2018-12-19T19:58:14.752Z,-0.61
2018-12-19T20:00:42.479Z,-0.57
2018-12-19T20:03:10.071Z,-0.68
2018-12-19T20:05:37.628Z,-0.68
2018-12-19T20:08:05.281Z,-0.70
2018-12-19T20:10:32.825Z,-0.67
2018-12-19T20:13:00.380Z,-0.66
2018-12-19T20:15:28.931Z,-0.55
2018-12-19T20:17:56.504Z,-0.62
2018-12-19T20:20:24.081Z,-0.63
2018-12-19T20:22:52.143Z,-0.49
2018-12-19T20:25:21.000Z,-0.51
2018-12-19T20:27:47.322Z,-0.56
2018-12-19T20:30:15.059Z,-0.70
2018-12-19T20:32:42.621Z,-0.77
2018-12-19T20:35:10.190Z,-0.65
2018-12-19T20:37:38.006Z,-0.69
2018-12-19T20:40:05.868Z,-0.77
2018-12-19T20:42:33.441Z,-0.65
2018-12-19T20:45:01.274Z,-0.73
2018-12-19T20:47:28.856Z,-0.60
2018-12-19T20:49:56.422Z,-0.75
2018-12-19T20:52:24.024Z,-0.55
2018-12-19T20:54:51.598Z,-0.68
2018-12-19T20:57:19.186Z,-0.75
2018-12-19T20:59:46.931Z,-0.85
2018-12-19T21:02:14.529Z,-0.94
2018-12-19T21:04:42.089Z,-1.09
2018-12-19T21:07:09.779Z,-1.07
2018-12-19T21:09:37.362Z,-1.00
2018-12-19T21:12:05.046Z,-0.98
2018-12-19T21:14:33.171Z,-1.06
2018-12-19T21:17:05.881Z,-1.04
2018-12-19T21:19:33.474Z,-0.86
2018-12-19T21:22:01.034Z,-0.77
2018-12-19T21:24:28.602Z,-0.92
2018-12-19T21:26:56.440Z,-0.86
2018-12-19T21:29:24.042Z,-0.98
2018-12-19T21:31:51.646Z,-1.01
2018-12-19T21:34:19.321Z,-1.04
2018-12-19T21:36:46.895Z,-0.88
2018-12-19T21:39:14.493Z,-0.54
2018-12-19T21:41:42.129Z,-0.34
2018-12-19T21:44:09.696Z,-0.54
2018-12-19T21:46:37.306Z,-0.72
2018-12-19T21:49:05.024Z,-0.83
2018-12-19T21:51:32.665Z,-0.81
2018-12-19T21:54:00.238Z,-0.81
2018-12-19T21:56:28.103Z,-0.96
2018-12-19T21:58:55.685Z,-1.07
2018-12-19T22:01:23.314Z,-1.08
2018-12-19T22:03:51.086Z,-1.08
2018-12-19T22:06:18.650Z,-1.16
2018-12-19T22:08:46.210Z,-1.25
2018-12-19T22:11:13.858Z,-1.27
2018-12-19T22:13:41.481Z,-1.36
2018-12-19T22:16:09.096Z,-1.47
2018-12-19T22:18:47.307Z,-1.55
2018-12-19T22:21:15.827Z,-1.59
2018-12-19T22:23:43.403Z,-1.54
2018-12-19T22:26:11.098Z,-1.55
2018-12-19T22:28:38.701Z,-1.69
2018-12-19T22:31:06.288Z,-1.72
2018-12-19T22:33:34.058Z,-1.74
2018-12-19T22:36:01.699Z,-1.75
2018-12-19T22:38:29.322Z,-1.81
2018-12-19T22:40:57.046Z,-1.81
2018-12-19T22:43:25.469Z,-1.80
2018-12-19T22:45:53.035Z,-1.67
2018-12-19T22:48:20.945Z,-1.67
2018-12-19T22:50:48.613Z,-1.56
2018-12-19T22:53:16.144Z,-1.53
2018-12-19T22:55:43.819Z,-1.54
2018-12-19T22:58:11.520Z,-1.56
2018-12-19T23:00:44.814Z,-1.65
2018-12-19T23:03:12.378Z,-1.44
2018-12-19T23:05:45.771Z,-1.51
2018-12-19T23:08:13.448Z,-1.52
2018-12-19T23:10:40.964Z,-1.38
2018-12-19T23:13:08.692Z,-1.44
2018-12-19T23:15:36.371Z,-1.70
2018-12-19T23:18:09.731Z,-1.82
2018-12-19T23:20:37.341Z,-1.96
2018-12-19T23:23:04.966Z,-2.08
2018-12-19T23:25:32.679Z,-2.09
2018-12-19T23:28:00.237Z,-2.02
2018-12-19T23:30:27.897Z,-2.03
2018-12-19T23:32:55.505Z,-2.12
2018-12-19T23:35:23.079Z,-2.22
2018-12-19T23:37:50.649Z,-2.26
2018-12-19T23:40:18.498Z,-2.33
2018-12-19T23:42:46.131Z,-2.40
2018-12-19T23:45:13.722Z,-2.51
2018-12-19T23:47:41.387Z,-2.58
2018-12-19T23:50:08.993Z,-2.60
2018-12-19T23:52:36.542Z,-2.60
2018-12-19T23:55:04.583Z,-2.61
2018-12-19T23:57:32.301Z,-2.55
2018-12-19T23:59:59.747Z,-2.50
